createdAt,value
2022-11-20T00:00:55.192Z,0.97
2022-11-20T00:03:22.587Z,1.10
2022-11-20T00:05:49.293Z,0.83
2022-11-20T00:08:16.158Z,0.83
2022-11-20T00:10:42.807Z,1.10
2022-11-20T00:13:09.458Z,1.03
2022-11-20T00:15:36.346Z,1.03
2022-11-20T00:18:03.041Z,0.90
2022-11-20T00:20:29.668Z,1.30
2022-11-20T00:22:56.597Z,0.80
2022-11-20T00:25:23.250Z,0.97
2022-11-20T00:27:49.894Z,0.93
2022-11-20T00:30:16.846Z,0.80
2022-11-20T00:32:43.479Z,0.67
2022-11-20T00:35:10.120Z,0.70
2022-11-20T00:37:36.958Z,0.60
2022-11-20T00:40:03.806Z,0.80
2022-11-20T00:42:30.486Z,0.70
2022-11-20T00:44:57.485Z,1.17
2022-11-20T00:47:24.084Z,0.67
2022-11-20T00:49:50.698Z,0.67
2022-11-20T00:52:17.573Z,0.90
2022-11-20T00:54:44.235Z,0.70
2022-11-20T00:57:10.874Z,0.60
2022-11-20T00:59:37.803Z,0.93
2022-11-20T01:02:04.429Z,0.73
2022-11-20T01:04:31.251Z,0.70
2022-11-20T01:06:58.206Z,0.40
2022-11-20T01:09:24.891Z,0.50
2022-11-20T01:11:51.591Z,0.60
2022-11-20T01:14:20.445Z,0.70
2022-11-20T01:16:50.113Z,0.80
2022-11-20T01:19:20.751Z,0.47
2022-11-20T01:21:50.867Z,0.60
2022-11-20T01:24:19.033Z,0.60
2022-11-20T01:26:48.043Z,0.60
2022-11-20T01:29:17.732Z,0.50
2022-11-20T01:31:45.653Z,0.43
2022-11-20T01:34:16.270Z,0.50
2022-11-20T01:36:44.297Z,0.40
2022-11-20T01:39:25.595Z,0.50
2022-11-20T01:42:12.675Z,0.43
2022-11-20T01:44:58.985Z,0.60
2022-11-20T01:47:36.836Z,0.60
2022-11-20T01:50:25.619Z,0.40
2022-11-20T01:53:15.442Z,0.40
2022-11-20T01:55:54.786Z,0.40
2022-11-20T01:58:26.973Z,0.60
2022-11-20T02:00:53.684Z,0.63
2022-11-20T02:03:21.587Z,0.40
2022-11-20T02:05:51.409Z,0.30
2022-11-20T02:08:19.241Z,0.20
2022-11-20T02:10:46.063Z,0.30
2022-11-20T02:13:31.426Z,0.47
2022-11-20T02:15:58.431Z,0.40
2022-11-20T02:18:25.609Z,0.27
2022-11-20T02:21:00.578Z,0.40
2022-11-20T02:23:44.942Z,0.30
2022-11-20T02:26:15.494Z,0.20
2022-11-20T02:28:42.739Z,0.27
2022-11-20T02:31:09.378Z,0.20
2022-11-20T02:33:36.138Z,0.20
2022-11-20T02:36:02.862Z,0.23
2022-11-20T02:38:29.543Z,0.20
2022-11-20T02:40:56.285Z,0.30
2022-11-20T02:43:23.909Z,0.20
2022-11-20T02:45:50.543Z,0.30
2022-11-20T02:48:17.397Z,0.30
2022-11-20T02:50:44.271Z,0.13
2022-11-20T02:53:10.981Z,0.20
2022-11-20T02:55:37.872Z,0.20
2022-11-20T02:58:04.657Z,0.27
2022-11-20T03:00:31.605Z,0.30
2022-11-20T03:02:58.553Z,0.30
2022-11-20T03:05:25.240Z,0.30
2022-11-20T03:07:51.895Z,0.30
2022-11-20T03:10:18.587Z,0.30
2022-11-20T03:12:45.382Z,0.20
2022-11-20T03:15:12.308Z,0.40
2022-11-20T03:17:39.225Z,0.30
2022-11-20T03:20:07.000Z,0.30
2022-11-20T03:22:33.833Z,0.50
2022-11-20T03:25:00.599Z,0.30
2022-11-20T03:27:27.218Z,0.40
2022-11-20T03:29:53.827Z,0.30
2022-11-20T03:32:20.757Z,0.40
2022-11-20T03:34:47.408Z,0.50
2022-11-20T03:37:14.085Z,0.30
2022-11-20T03:39:41.101Z,0.40
2022-11-20T03:42:27.752Z,0.40
2022-11-20T03:44:54.800Z,0.53
2022-11-20T03:47:21.544Z,0.40
2022-11-20T03:49:48.193Z,0.57
2022-11-20T03:52:15.123Z,0.70
2022-11-20T03:54:41.795Z,0.60
2022-11-20T03:57:08.404Z,0.67
2022-11-20T03:59:35.302Z,0.30
2022-11-20T04:02:01.995Z,0.60
2022-11-20T04:04:28.689Z,0.50
2022-11-20T04:06:55.820Z,0.60
2022-11-20T04:09:22.661Z,0.30
2022-11-20T04:11:49.574Z,0.60
2022-11-20T04:14:17.477Z,0.60
2022-11-20T04:16:44.708Z,0.50
2022-11-20T04:19:14.292Z,0.40
2022-11-20T04:21:42.026Z,0.60
2022-11-20T04:24:09.029Z,0.40
2022-11-20T04:26:35.770Z,0.50
2022-11-20T04:29:05.421Z,0.40
2022-11-20T04:31:34.887Z,0.50
2022-11-20T04:34:07.171Z,0.40
2022-11-20T04:36:34.425Z,0.40
2022-11-20T04:39:03.688Z,0.53
2022-11-20T04:41:33.161Z,0.50
2022-11-20T04:44:04.517Z,0.47
2022-11-20T04:46:51.670Z,0.70
2022-11-20T04:49:18.396Z,0.50
2022-11-20T04:51:45.247Z,0.40
2022-11-20T04:54:12.585Z,0.70
2022-11-20T04:56:39.230Z,0.40
2022-11-20T04:59:05.948Z,0.40
2022-11-20T05:01:33.801Z,0.50
2022-11-20T05:04:00.478Z,0.57
2022-11-20T05:06:27.162Z,0.70
2022-11-20T05:08:54.022Z,0.43
2022-11-20T05:11:22.241Z,0.40
2022-11-20T05:13:49.418Z,0.30
2022-11-20T05:16:20.398Z,0.60
2022-11-20T05:18:47.769Z,0.40
2022-11-20T05:21:15.610Z,0.43
2022-11-20T05:23:43.857Z,0.30
2022-11-20T05:26:18.254Z,0.57
2022-11-20T05:28:45.087Z,0.30
2022-11-20T05:31:14.526Z,0.30
2022-11-20T05:33:42.560Z,0.40
2022-11-20T05:36:10.474Z,0.30
2022-11-20T05:38:37.126Z,0.50
2022-11-20T05:41:08.113Z,0.40
2022-11-20T05:43:40.489Z,0.30
2022-11-20T05:46:08.978Z,0.30
2022-11-20T05:48:36.547Z,0.40
2022-11-20T05:51:05.624Z,0.40
2022-11-20T05:53:34.103Z,0.30
2022-11-20T05:56:05.685Z,0.40
2022-11-20T05:58:33.351Z,0.50
2022-11-20T06:01:15.641Z,0.40
2022-11-20T06:03:52.340Z,0.50
2022-11-20T06:06:19.849Z,0.67
2022-11-20T06:08:47.067Z,0.90
2022-11-20T06:11:15.586Z,0.80
2022-11-20T06:13:43.057Z,0.80
2022-11-20T06:16:11.183Z,0.70
2022-11-20T06:18:38.543Z,0.70
2022-11-20T06:21:10.839Z,0.87
2022-11-20T06:23:38.063Z,0.80
2022-11-20T06:26:07.800Z,0.90
2022-11-20T06:28:35.023Z,1.10
2022-11-20T06:31:01.902Z,0.97
2022-11-20T06:33:28.933Z,0.90
2022-11-20T06:36:01.785Z,0.90
2022-11-20T06:38:31.088Z,0.97
2022-11-20T06:40:57.763Z,0.97
2022-11-20T06:43:25.354Z,0.70
2022-11-20T06:45:56.280Z,0.60
2022-11-20T06:48:24.625Z,0.70
2022-11-20T06:50:51.266Z,0.83
2022-11-20T06:53:17.991Z,0.90
2022-11-20T06:55:48.815Z,0.90
2022-11-20T06:58:16.927Z,0.80
2022-11-20T07:00:44.473Z,0.73
2022-11-20T07:03:12.628Z,0.80
2022-11-20T07:05:39.760Z,0.63
2022-11-20T07:08:06.756Z,0.83
2022-11-20T07:10:34.044Z,0.77
2022-11-20T07:13:00.812Z,0.87
2022-11-20T07:15:28.185Z,0.80
2022-11-20T07:17:55.017Z,0.80
2022-11-20T07:20:21.661Z,0.80
2022-11-20T07:22:54.090Z,0.53
2022-11-20T07:25:20.849Z,0.53
2022-11-20T07:27:47.463Z,0.60
2022-11-20T07:30:15.271Z,0.80
2022-11-20T07:32:42.013Z,0.60
2022-11-20T07:35:09.076Z,0.77
2022-11-20T07:37:36.347Z,0.60
2022-11-20T07:40:03.642Z,0.67
2022-11-20T07:42:30.312Z,0.60
2022-11-20T07:44:57.123Z,0.50
2022-11-20T07:47:24.133Z,0.70
2022-11-20T07:49:50.767Z,0.80
2022-11-20T07:52:17.537Z,0.87
2022-11-20T07:54:44.281Z,0.80
2022-11-20T07:57:11.642Z,0.60
2022-11-20T07:59:40.018Z,0.73
2022-11-20T08:02:06.682Z,0.60
2022-11-20T08:04:34.294Z,0.47
2022-11-20T08:07:01.274Z,0.47
2022-11-20T08:09:28.106Z,0.63
2022-11-20T08:12:13.336Z,0.40
2022-11-20T08:14:40.286Z,0.70
2022-11-20T08:17:06.924Z,0.50
2022-11-20T08:19:34.015Z,0.53
2022-11-20T08:22:00.790Z,0.50
2022-11-20T08:24:27.522Z,0.60
2022-11-20T08:26:54.465Z,0.40
2022-11-20T08:29:21.433Z,0.40
2022-11-20T08:31:48.361Z,0.60
2022-11-20T08:34:18.957Z,0.53
2022-11-20T08:36:46.121Z,0.40
2022-11-20T08:39:14.200Z,0.50
2022-11-20T08:41:41.023Z,0.30
2022-11-20T08:44:09.011Z,0.63
2022-11-20T08:46:42.161Z,0.40
2022-11-20T08:49:11.752Z,0.30
2022-11-20T08:51:39.200Z,0.50
2022-11-20T08:54:06.979Z,0.40
2022-11-20T08:56:35.288Z,0.50
2022-11-20T08:59:20.520Z,0.30
2022-11-20T09:01:49.126Z,0.43
2022-11-20T09:04:16.543Z,0.60
2022-11-20T09:06:43.250Z,0.63
2022-11-20T09:09:10.202Z,0.80
2022-11-20T09:11:37.152Z,0.70
2022-11-20T09:14:03.939Z,0.50
2022-11-20T09:16:30.878Z,0.67
2022-11-20T09:19:28.239Z,0.60
2022-11-20T09:21:44.387Z,0.73
2022-11-20T09:24:11.078Z,0.50
2022-11-20T09:26:37.702Z,0.60
2022-11-20T09:29:04.526Z,0.67
2022-11-20T09:31:31.177Z,0.77
2022-11-20T09:33:58.510Z,0.47
2022-11-20T09:36:25.446Z,0.30
2022-11-20T09:38:52.075Z,0.67
2022-11-20T09:41:57.365Z,0.53
2022-11-20T09:44:56.354Z,0.50
2022-11-20T09:47:41.246Z,0.30
2022-11-20T09:50:26.745Z,0.57
2022-11-20T09:53:36.350Z,0.50
2022-11-20T09:56:05.943Z,0.60
2022-11-20T09:58:40.351Z,0.67
2022-11-20T10:01:31.379Z,0.50
2022-11-20T10:04:05.939Z,0.40
2022-11-20T10:06:46.064Z,0.40
2022-11-20T10:09:20.469Z,0.43
2022-11-20T10:11:47.313Z,0.40
2022-11-20T10:14:33.257Z,0.40
2022-11-20T10:17:15.249Z,0.43
2022-11-20T10:19:42.120Z,0.37
2022-11-20T10:22:23.988Z,0.57
2022-11-20T10:25:21.034Z,0.40
2022-11-20T10:28:32.931Z,0.40
2022-11-20T10:31:11.530Z,0.40
2022-11-20T10:34:04.989Z,0.40
2022-11-20T10:36:39.936Z,0.27
2022-11-20T10:39:18.626Z,0.50
2022-11-20T10:41:50.962Z,0.40
2022-11-20T10:44:39.971Z,0.30
2022-11-20T10:47:19.194Z,0.30
2022-11-20T10:49:49.864Z,0.40
2022-11-20T10:52:31.938Z,0.50
2022-11-20T10:55:23.396Z,0.40
2022-11-20T10:58:13.586Z,0.40
2022-11-20T11:00:40.417Z,0.30
2022-11-20T11:03:22.740Z,0.50
2022-11-20T11:06:24.991Z,0.43
2022-11-20T11:08:56.069Z,0.53
2022-11-20T11:11:34.441Z,0.50
2022-11-20T11:14:13.418Z,0.37
2022-11-20T11:16:57.975Z,0.50
2022-11-20T11:19:25.918Z,0.50
2022-11-20T11:21:57.806Z,0.47
2022-11-20T11:24:45.191Z,0.40
2022-11-20T11:27:17.107Z,0.40
2022-11-20T11:29:45.255Z,0.60
2022-11-20T11:32:23.201Z,0.80
2022-11-20T11:35:07.904Z,0.50
2022-11-20T11:37:39.757Z,0.43
2022-11-20T11:40:27.300Z,0.30
2022-11-20T11:43:01.209Z,0.40
2022-11-20T11:45:28.777Z,0.30
2022-11-20T11:47:59.434Z,0.30
2022-11-20T11:50:28.616Z,0.30
2022-11-20T11:53:07.680Z,0.30
2022-11-20T11:56:09.314Z,0.30
2022-11-20T11:58:42.906Z,0.30
2022-11-20T12:01:30.380Z,0.23
2022-11-20T12:04:05.582Z,0.40
2022-11-20T12:06:35.925Z,0.40
2022-11-20T12:09:10.467Z,0.33
2022-11-20T12:12:00.057Z,0.30
2022-11-20T12:14:39.010Z,0.50
2022-11-20T12:17:06.194Z,0.40
2022-11-20T12:19:35.727Z,0.50
2022-11-20T12:22:11.931Z,0.30
2022-11-20T12:24:56.095Z,0.40
2022-11-20T12:27:25.865Z,0.40
2022-11-20T12:30:16.355Z,0.40
2022-11-20T12:33:11.632Z,0.40
2022-11-20T12:36:13.854Z,0.30
2022-11-20T12:39:02.880Z,0.30
2022-11-20T12:42:10.989Z,0.43
2022-11-20T12:45:02.501Z,0.40
2022-11-20T12:47:41.118Z,0.40
2022-11-20T12:50:18.882Z,0.40
2022-11-20T12:52:57.978Z,0.30
2022-11-20T12:55:37.166Z,0.37
2022-11-20T12:58:22.794Z,0.30
2022-11-20T13:01:43.802Z,0.40
2022-11-20T13:04:19.245Z,0.30
2022-11-20T13:06:46.426Z,0.50
2022-11-20T13:09:17.332Z,0.33
2022-11-20T13:12:03.046Z,0.37
2022-11-20T13:14:38.872Z,0.30
2022-11-20T13:17:38.140Z,0.17
2022-11-20T13:20:07.742Z,0.33
2022-11-20T13:22:49.590Z,0.33
2022-11-20T13:25:35.662Z,0.23
2022-11-20T13:28:26.221Z,0.30
2022-11-20T13:30:55.334Z,0.20
2022-11-20T13:33:28.647Z,0.50
2022-11-20T13:36:02.451Z,0.40
2022-11-20T13:38:41.121Z,0.30
2022-11-20T13:41:27.780Z,0.57
2022-11-20T13:44:03.048Z,0.80
2022-11-20T13:46:42.109Z,0.30
2022-11-20T13:49:43.857Z,0.30
2022-11-20T13:52:45.725Z,0.40
2022-11-20T13:55:15.855Z,0.67
2022-11-20T13:58:03.441Z,0.60
2022-11-20T14:00:30.364Z,0.30
2022-11-20T14:03:06.146Z,0.30
2022-11-20T14:05:38.488Z,0.40
2022-11-20T14:08:07.632Z,0.40
2022-11-20T14:10:34.333Z,0.40
2022-11-20T14:13:11.607Z,0.50
2022-11-20T14:15:44.783Z,0.30
2022-11-20T14:18:21.285Z,0.30
2022-11-20T14:20:48.250Z,0.40
2022-11-20T14:23:30.167Z,0.30
2022-11-20T14:25:57.398Z,0.20
2022-11-20T14:28:28.446Z,0.30
2022-11-20T14:30:56.580Z,0.40
2022-11-20T14:33:26.011Z,0.40
2022-11-20T14:35:57.880Z,0.40
2022-11-20T14:38:29.849Z,0.70
2022-11-20T14:41:08.056Z,0.53
2022-11-20T14:43:36.990Z,0.40
2022-11-20T14:46:09.520Z,0.30
2022-11-20T14:48:43.015Z,0.40
2022-11-20T14:51:12.120Z,0.20
2022-11-20T14:53:38.881Z,0.43
2022-11-20T14:56:05.836Z,0.40
2022-11-20T14:58:34.825Z,0.40
2022-11-20T15:01:07.557Z,0.30
2022-11-20T15:03:40.023Z,0.30
2022-11-20T15:06:09.037Z,0.30
2022-11-20T15:08:36.049Z,0.60
2022-11-20T15:11:03.293Z,0.30
2022-11-20T15:13:39.645Z,0.43
2022-11-20T15:16:19.778Z,0.50
2022-11-20T15:18:46.690Z,0.40
2022-11-20T15:21:19.222Z,0.27
2022-11-20T15:23:46.168Z,0.30
2022-11-20T15:26:19.571Z,0.30
2022-11-20T15:28:49.085Z,0.30
2022-11-20T15:31:18.210Z,0.60
2022-11-20T15:33:45.062Z,0.40
2022-11-20T15:36:11.896Z,0.30
2022-11-20T15:38:38.608Z,0.47
2022-11-20T15:41:05.558Z,0.40
2022-11-20T15:43:32.451Z,0.50
2022-11-20T15:46:07.648Z,0.40
2022-11-20T15:48:46.372Z,0.60
2022-11-20T15:51:38.938Z,0.60
2022-11-20T15:54:21.538Z,0.63
2022-11-20T15:56:49.650Z,0.60
2022-11-20T15:59:16.511Z,1.00
2022-11-20T16:01:43.897Z,0.90
2022-11-20T16:04:15.688Z,0.83
2022-11-20T16:06:42.587Z,1.00
2022-11-20T16:09:09.509Z,0.90
2022-11-20T16:11:39.540Z,1.50
2022-11-20T16:14:26.107Z,1.37
2022-11-20T16:16:53.109Z,1.43
2022-11-20T16:19:19.783Z,1.50
2022-11-20T16:21:46.789Z,1.60
2022-11-20T16:24:15.372Z,1.40
2022-11-20T16:26:42.504Z,1.30
2022-11-20T16:29:09.613Z,1.40
2022-11-20T16:31:36.554Z,1.30
2022-11-20T16:34:11.186Z,1.53
2022-11-20T16:36:41.707Z,1.83
2022-11-20T16:39:09.784Z,2.30
2022-11-20T16:41:37.285Z,2.23
2022-11-20T16:44:09.007Z,1.43
2022-11-20T16:46:35.843Z,1.60
2022-11-20T16:49:14.662Z,1.23
2022-11-20T16:51:41.853Z,1.67
2022-11-20T16:54:10.655Z,1.60
2022-11-20T16:56:38.002Z,1.50
2022-11-20T16:59:05.129Z,1.57
2022-11-20T17:01:32.803Z,1.60
2022-11-20T17:04:01.936Z,1.67
2022-11-20T17:06:31.726Z,2.00
2022-11-20T17:08:59.319Z,1.60
2022-11-20T17:11:27.610Z,2.40
2022-11-20T17:14:00.786Z,1.90
2022-11-20T17:16:27.938Z,2.20
2022-11-20T17:19:01.241Z,2.10
2022-11-20T17:21:32.196Z,1.73
2022-11-20T17:24:03.987Z,1.27
2022-11-20T17:26:31.269Z,1.57
2022-11-20T17:29:01.273Z,1.50
2022-11-20T17:31:29.496Z,1.23
2022-11-20T17:33:56.651Z,1.70
2022-11-20T17:36:23.314Z,1.30
2022-11-20T17:38:50.126Z,1.77
2022-11-20T17:41:19.794Z,2.03
2022-11-20T17:43:46.783Z,1.47
2022-11-20T17:46:21.631Z,1.60
2022-11-20T17:48:49.852Z,1.37
2022-11-20T17:51:24.675Z,1.60
2022-11-20T17:53:54.230Z,1.80
2022-11-20T17:56:40.051Z,1.70
2022-11-20T17:59:08.215Z,2.13
2022-11-20T18:01:35.121Z,1.70
2022-11-20T18:04:02.607Z,1.93
2022-11-20T18:06:31.053Z,1.80
2022-11-20T18:09:02.639Z,2.17
2022-11-20T18:11:34.746Z,1.40
2022-11-20T18:14:21.633Z,2.03
2022-11-20T18:17:01.479Z,1.30
2022-11-20T18:19:32.723Z,1.50
2022-11-20T18:22:01.923Z,1.73
2022-11-20T18:24:29.010Z,1.90
2022-11-20T18:26:55.954Z,1.87
2022-11-20T18:29:22.924Z,1.93
2022-11-20T18:31:50.168Z,1.83
2022-11-20T18:34:16.894Z,2.17
2022-11-20T18:36:43.698Z,1.90
2022-11-20T18:39:12.226Z,1.70
2022-11-20T18:41:57.969Z,1.70
2022-11-20T18:44:49.063Z,1.73
2022-11-20T18:47:18.314Z,1.60
2022-11-20T18:49:51.485Z,2.30
2022-11-20T18:52:23.936Z,1.40
2022-11-20T18:54:51.734Z,1.60
2022-11-20T18:57:24.180Z,1.27
2022-11-20T18:59:51.630Z,1.70
2022-11-20T19:02:20.966Z,2.07
2022-11-20T19:04:47.981Z,1.90
2022-11-20T19:07:15.780Z,1.83
2022-11-20T19:09:44.861Z,1.67
2022-11-20T19:12:12.829Z,1.70
2022-11-20T19:14:39.689Z,1.77
2022-11-20T19:17:07.959Z,1.60
2022-11-20T19:19:35.360Z,1.63
2022-11-20T19:22:02.405Z,2.03
2022-11-20T19:24:29.274Z,1.60
2022-11-20T19:26:56.368Z,1.80
2022-11-20T19:29:25.051Z,1.97
2022-11-20T19:31:52.239Z,1.87
2022-11-20T19:34:19.081Z,1.87
2022-11-20T19:36:47.305Z,1.40
2022-11-20T19:39:14.306Z,1.50
2022-11-20T19:41:41.605Z,1.60
2022-11-20T19:44:10.973Z,1.33
2022-11-20T19:46:38.785Z,1.60
2022-11-20T19:49:10.255Z,1.33
2022-11-20T19:51:39.143Z,1.23
2022-11-20T19:54:06.958Z,1.57
2022-11-20T19:56:34.438Z,1.67
2022-11-20T19:59:01.844Z,1.70
2022-11-20T20:01:31.167Z,1.27
2022-11-20T20:04:03.718Z,1.63
2022-11-20T20:06:31.938Z,1.63
2022-11-20T20:09:07.700Z,1.20
2022-11-20T20:11:35.594Z,1.93
2022-11-20T20:14:03.924Z,1.60
2022-11-20T20:16:30.959Z,1.40
2022-11-20T20:18:59.358Z,1.60
2022-11-20T20:21:26.062Z,1.70
2022-11-20T20:23:54.355Z,1.40
2022-11-20T20:26:22.971Z,1.53
2022-11-20T20:28:50.215Z,1.80
2022-11-20T20:31:20.665Z,1.80
2022-11-20T20:33:47.984Z,1.80
2022-11-20T20:36:17.079Z,1.60
2022-11-20T20:38:44.747Z,1.67
2022-11-20T20:41:11.746Z,1.20
2022-11-20T20:44:05.131Z,1.20
2022-11-20T20:46:32.214Z,2.23
2022-11-20T20:48:58.875Z,1.63
2022-11-20T20:51:25.745Z,1.40
2022-11-20T20:53:52.543Z,1.73
2022-11-20T20:56:19.391Z,1.60
2022-11-20T20:58:46.184Z,1.63
2022-11-20T21:01:15.682Z,1.43
2022-11-20T21:03:42.721Z,1.63
2022-11-20T21:06:11.378Z,1.40
2022-11-20T21:08:40.676Z,1.40
2022-11-20T21:11:11.144Z,1.87
2022-11-20T21:13:39.421Z,1.60
2022-11-20T21:16:06.874Z,1.27
2022-11-20T21:18:34.002Z,1.63
2022-11-20T21:21:22.743Z,1.60
2022-11-20T21:23:49.417Z,1.50
2022-11-20T21:26:16.228Z,1.60
2022-11-20T21:28:43.364Z,1.63
2022-11-20T21:31:11.304Z,1.20
2022-11-20T21:33:43.556Z,1.60
2022-11-20T21:36:13.961Z,1.40
2022-11-20T21:38:41.015Z,1.40
2022-11-20T21:41:09.601Z,1.30
2022-11-20T21:43:36.505Z,1.50
2022-11-20T21:46:04.845Z,1.73
2022-11-20T21:48:33.117Z,1.33
2022-11-20T21:51:08.513Z,1.40
2022-11-20T21:53:35.210Z,1.67
2022-11-20T21:56:04.289Z,1.20
2022-11-20T21:58:31.724Z,1.20
2022-11-20T22:00:58.534Z,1.47
2022-11-20T22:03:25.618Z,1.50
2022-11-20T22:05:57.256Z,1.60
2022-11-20T22:08:24.767Z,1.40
2022-11-20T22:11:00.188Z,1.30
2022-11-20T22:13:46.399Z,1.40
2022-11-20T22:16:14.334Z,1.50
2022-11-20T22:18:51.234Z,1.60
2022-11-20T22:21:21.037Z,1.70
2022-11-20T22:23:48.092Z,1.20
2022-11-20T22:26:17.124Z,1.50
2022-11-20T22:28:46.443Z,1.60
2022-11-20T22:31:13.114Z,1.47
2022-11-20T22:33:40.165Z,1.10
2022-11-20T22:36:10.007Z,1.63
2022-11-20T22:38:39.509Z,1.37
2022-11-20T22:41:15.163Z,1.23
2022-11-20T22:43:43.146Z,1.37
2022-11-20T22:46:11.446Z,1.50
2022-11-20T22:48:41.003Z,1.90
2022-11-20T22:51:10.445Z,1.03
2022-11-20T22:53:37.517Z,1.50
2022-11-20T22:56:09.107Z,1.00
2022-11-20T22:58:37.447Z,1.30
2022-11-20T23:01:09.089Z,1.43
2022-11-20T23:03:36.049Z,1.43
2022-11-20T23:06:03.301Z,1.40
2022-11-20T23:08:29.995Z,1.10
2022-11-20T23:11:08.362Z,1.10
2022-11-20T23:13:35.237Z,1.50
2022-11-20T23:16:22.500Z,1.67
2022-11-20T23:18:54.737Z,1.07
2022-11-20T23:21:21.516Z,1.63
2022-11-20T23:23:53.694Z,1.07
2022-11-20T23:26:22.439Z,1.20
2022-11-20T23:28:49.465Z,1.10
2022-11-20T23:31:17.110Z,1.07
2022-11-20T23:33:45.667Z,1.20
2022-11-20T23:36:13.218Z,1.13
2022-11-20T23:38:40.282Z,0.97
2022-11-20T23:41:07.462Z,1.10
2022-11-20T23:43:34.551Z,1.53
2022-11-20T23:46:02.812Z,1.30
2022-11-20T23:48:31.934Z,1.27
2022-11-20T23:50:59.219Z,0.87
2022-11-20T23:53:26.458Z,1.20
2022-11-20T23:55:57.802Z,1.33
2022-11-20T23:58:29.937Z,1.10
